Time,TemperatureF,DewpointF,PressureIn,WindDirection,WindDirectionDegrees,WindSpeedMPH,WindSpeedGustMPH,Humidity,HourlyPrecipIn,Conditions,Clouds,dailyrainin,SolarRadiationWatts/m^2,SoftwareType,DateUTC
2013-03-20 00:03:00,58.0,57.0,-100.00,North,351,1.0,3.0,97,0.00,,,0.00,0.000000,,2013-03-20 10:03:00,
2013-03-20 00:12:00,58.0,57.0,-100.00,North,351,1.0,3.0,97,0.00,,,0.00,0.000000,,2013-03-20 10:12:00,
2013-03-20 00:22:00,58.0,57.0,-100.00,North,351,1.0,3.0,97,0.00,,,0.00,0.000000,,2013-03-20 10:22:00,
2013-03-20 00:43:00,59.0,54.0,-100.00,North,358,3.0,7.0,84,0.00,,,0.00,0.000000,,2013-03-20 10:43:00,
2013-03-20 00:53:00,59.0,54.0,-100.00,North,358,3.0,7.0,84,0.00,,,0.00,0.000000,,2013-03-20 10:53:00,
2013-03-20 01:02:00,59.0,54.0,-100.00,North,358,3.0,7.0,84,0.00,,,0.00,0.000000,,2013-03-20 11:02:00,
2013-03-20 01:12:00,59.0,54.0,-100.00,North,358,3.0,7.0,84,0.00,,,0.00,0.000000,,2013-03-20 11:12:00,
2013-03-20 01:21:00,59.0,54.0,-100.00,North,358,3.0,7.0,84,0.00,,,0.00,0.000000,,2013-03-20 11:21:00,
2013-03-20 01:42:00,60.0,57.0,-100.00,North,4,2.0,8.0,89,0.00,,,0.00,0.000000,,2013-03-20 11:42:00,
2013-03-20 01:52:00,60.0,57.0,-100.00,North,4,2.0,8.0,89,0.00,,,0.00,0.000000,,2013-03-20 11:52:00,
2013-03-20 02:02:00,60.0,57.0,-100.00,North,4,2.0,8.0,89,0.00,,,0.00,0.000000,,2013-03-20 12:02:00,
2013-03-20 02:12:00,60.0,57.0,-100.00,North,4,2.0,8.0,89,0.00,,,0.00,0.000000,,2013-03-20 12:12:00,
2013-03-20 02:21:00,60.0,57.0,-100.00,North,4,2.0,8.0,89,0.00,,,0.00,0.000000,,2013-03-20 12:21:00,
2013-03-20 02:42:00,59.0,59.0,-100.00,ENE,75,2.0,7.0,100,0.00,,,0.00,0.000000,,2013-03-20 12:42:00,
2013-03-20 02:52:00,59.0,59.0,-100.00,ENE,75,2.0,7.0,100,0.00,,,0.00,0.000000,,2013-03-20 12:52:00,
2013-03-20 03:02:00,59.0,59.0,-100.00,ENE,75,2.0,7.0,100,0.00,,,0.00,0.000000,,2013-03-20 13:02:00,
2013-03-20 03:12:00,59.0,59.0,-100.00,ENE,75,2.0,7.0,100,0.00,,,0.00,0.000000,,2013-03-20 13:12:00,
2013-03-20 03:21:00,59.0,59.0,-100.00,ENE,75,2.0,7.0,100,0.00,,,0.00,0.000000,,2013-03-20 13:21:00,
2013-03-20 03:43:00,58.0,58.0,-100.00,North,356,3.0,8.0,100,0.00,,,0.00,0.000000,,2013-03-20 13:43:00,
2013-03-20 03:53:00,58.0,58.0,-100.00,North,356,3.0,8.0,100,0.00,,,0.00,0.000000,,2013-03-20 13:53:00,
2013-03-20 04:02:00,58.0,58.0,-100.00,North,356,3.0,8.0,100,0.00,,,0.00,0.000000,,2013-03-20 14:02:00,
2013-03-20 04:12:00,58.0,58.0,-100.00,North,356,3.0,8.0,100,0.00,,,0.00,0.000000,,2013-03-20 14:12:00,
2013-03-20 04:21:00,58.0,58.0,-100.00,North,356,3.0,8.0,100,0.00,,,0.00,0.000000,,2013-03-20 14:21:00,
2013-03-20 04:43:00,58.0,54.0,-100.00,North,358,4.0,10.0,87,0.00,,,0.00,0.000000,,2013-03-20 14:43:00,
2013-03-20 04:52:00,58.0,54.0,-100.00,North,358,4.0,10.0,87,0.00,,,0.00,0.000000,,2013-03-20 14:52:00,
2013-03-20 05:02:00,58.0,54.0,-100.00,North,358,4.0,10.0,87,0.00,,,0.00,0.000000,,2013-03-20 15:02:00,
2013-03-20 05:12:00,58.0,54.0,-100.00,North,358,4.0,10.0,87,0.00,,,0.00,0.000000,,2013-03-20 15:12:00,
2013-03-20 05:21:00,58.0,54.0,-100.00,North,358,4.0,10.0,87,0.00,,,0.00,0.000000,,2013-03-20 15:21:00,
2013-03-20 05:43:00,58.0,52.0,-100.00,North,358,3.0,9.0,79,0.00,,,0.00,0.000000,,2013-03-20 15:43:00,
2013-03-20 05:53:00,58.0,52.0,-100.00,North,358,3.0,9.0,79,0.00,,,0.00,0.000000,,2013-03-20 15:53:00,
2013-03-20 06:02:00,58.0,52.0,-100.00,North,358,3.0,9.0,79,0.00,,,0.00,0.000000,,2013-03-20 16:02:00,
2013-03-20 06:12:00,58.0,52.0,-100.00,North,358,3.0,9.0,79,0.00,,,0.00,0.000000,,2013-03-20 16:12:00,
2013-03-20 06:22:00,58.0,52.0,-100.00,North,358,3.0,9.0,79,0.00,,,0.00,0.000000,,2013-03-20 16:22:00,
2013-03-20 06:43:00,59.0,52.0,-100.00,North,0,3.0,9.0,77,0.00,,,0.00,0.000000,,2013-03-20 16:43:00,
2013-03-20 06:53:00,59.0,52.0,-100.00,North,0,3.0,9.0,77,0.00,,,0.00,0.000000,,2013-03-20 16:53:00,
2013-03-20 07:03:00,59.0,52.0,-100.00,North,0,3.0,9.0,77,0.00,,,0.00,0.000000,,2013-03-20 17:03:00,
2013-03-20 07:11:00,59.0,52.0,-100.00,North,0,3.0,9.0,77,0.00,,,0.00,0.000000,,2013-03-20 17:11:00,
2013-03-20 07:21:00,59.0,52.0,-100.00,North,0,3.0,9.0,77,0.00,,,0.00,0.000000,,2013-03-20 17:21:00,
2013-03-20 07:42:00,59.0,52.0,-100.00,North,359,3.0,9.0,77,0.00,,,0.00,7.000000,,2013-03-20 17:42:00,
2013-03-20 07:53:00,59.0,52.0,-100.00,North,359,3.0,9.0,77,0.00,,,0.00,7.000000,,2013-03-20 17:53:00,
2013-03-20 08:02:00,59.0,52.0,-100.00,North,359,3.0,9.0,77,0.00,,,0.00,7.000000,,2013-03-20 18:02:00,
2013-03-20 08:12:00,59.0,52.0,-100.00,North,359,3.0,9.0,77,0.00,,,0.00,7.000000,,2013-03-20 18:12:00,
2013-03-20 08:21:00,59.0,52.0,-100.00,North,359,3.0,9.0,77,0.00,,,0.00,7.000000,,2013-03-20 18:21:00,
2013-03-20 08:52:00,61.0,54.0,-100.00,NE,43,2.0,8.0,78,0.00,,,0.00,83.000000,,2013-03-20 18:52:00,
2013-03-20 09:02:00,61.0,54.0,-100.00,NE,43,2.0,8.0,78,0.00,,,0.00,83.000000,,2013-03-20 19:02:00,
2013-03-20 09:12:00,61.0,54.0,-100.00,NE,43,2.0,8.0,78,0.00,,,0.00,83.000000,,2013-03-20 19:12:00,
2013-03-20 09:22:00,61.0,54.0,-100.00,NE,43,2.0,8.0,78,0.00,,,0.00,83.000000,,2013-03-20 19:22:00,
2013-03-20 09:42:00,62.0,57.0,-100.00,NNE,16,3.0,12.0,83,0.00,,,0.00,189.000000,,2013-03-20 19:42:00,
2013-03-20 09:53:00,62.0,57.0,-100.00,NNE,16,3.0,12.0,83,0.00,,,0.00,189.000000,,2013-03-20 19:53:00,
2013-03-20 10:02:00,62.0,57.0,-100.00,NNE,16,3.0,12.0,83,0.00,,,0.00,189.000000,,2013-03-20 20:02:00,
2013-03-20 10:12:00,62.0,57.0,-100.00,NNE,16,3.0,12.0,83,0.00,,,0.00,189.000000,,2013-03-20 20:12:00,
2013-03-20 10:21:00,62.0,57.0,-100.00,NNE,16,3.0,12.0,83,0.00,,,0.00,189.000000,,2013-03-20 20:21:00,
2013-03-20 10:42:00,61.0,58.0,-100.00,North,4,2.0,9.0,91,0.04,,,0.04,232.000000,,2013-03-20 20:42:00,
2013-03-20 10:53:00,61.0,58.0,-100.00,North,4,2.0,9.0,91,0.04,,,0.04,232.000000,,2013-03-20 20:53:00,
2013-03-20 11:02:00,61.0,58.0,-100.00,North,4,2.0,9.0,91,0.04,,,0.04,232.000000,,2013-03-20 21:02:00,
2013-03-20 11:12:00,61.0,58.0,-100.00,North,4,2.0,9.0,91,0.04,,,0.04,232.000000,,2013-03-20 21:12:00,
2013-03-20 11:21:00,61.0,58.0,-100.00,North,4,2.0,9.0,91,0.04,,,0.04,232.000000,,2013-03-20 21:21:00,
2013-03-20 11:42:00,62.0,61.0,-100.00,NNE,31,2.0,8.0,97,0.07,,,0.11,276.000000,,2013-03-20 21:42:00,
2013-03-20 11:53:00,62.0,61.0,-100.00,NNE,31,2.0,8.0,97,0.07,,,0.11,276.000000,,2013-03-20 21:53:00,
2013-03-20 12:03:00,62.0,61.0,-100.00,NNE,31,2.0,8.0,97,0.07,,,0.11,276.000000,,2013-03-20 22:03:00,
2013-03-20 12:12:00,62.0,61.0,-100.00,NNE,31,2.0,8.0,97,0.07,,,0.11,276.000000,,2013-03-20 22:12:00,
2013-03-20 12:22:00,62.0,61.0,-100.00,NNE,31,2.0,8.0,97,0.07,,,0.11,276.000000,,2013-03-20 22:22:00,
2013-03-20 12:23:00,62.0,-99.9,-100.00,East,98,2.0,12.0,-999,0.21,,,0.32,262.000000,,2013-03-20 22:23:00,
2013-03-20 12:43:00,62.0,-99.9,-100.00,East,98,2.0,12.0,-999,0.21,,,0.32,262.000000,,2013-03-20 22:43:00,
2013-03-20 12:53:00,62.0,-99.9,-100.00,East,98,2.0,12.0,-999,0.21,,,0.32,262.000000,,2013-03-20 22:53:00,
2013-03-20 13:03:00,62.0,-99.9,-100.00,East,98,2.0,12.0,-999,0.21,,,0.32,262.000000,,2013-03-20 23:03:00,
2013-03-20 13:12:00,62.0,-99.9,-100.00,East,98,2.0,12.0,-999,0.21,,,0.32,262.000000,,2013-03-20 23:12:00,
2013-03-20 13:23:00,62.0,-99.9,-100.00,ESE,108,2.0,6.0,-999,0.10,,,0.42,262.000000,,2013-03-20 23:23:00,
2013-03-20 13:43:00,62.0,-99.9,-100.00,ESE,108,2.0,6.0,-999,0.10,,,0.42,262.000000,,2013-03-20 23:43:00,
2013-03-20 13:53:00,62.0,-99.9,-100.00,ESE,108,2.0,6.0,-999,0.10,,,0.42,262.000000,,2013-03-20 23:53:00,
2013-03-20 14:03:00,62.0,-99.9,-100.00,ESE,108,2.0,6.0,-999,0.10,,,0.42,262.000000,,2013-03-21 00:03:00,
2013-03-20 14:13:00,62.0,-99.9,-100.00,ESE,108,2.0,6.0,-999,0.10,,,0.42,262.000000,,2013-03-21 00:13:00,
2013-03-20 14:43:00,63.0,-99.9,-100.00,SSE,149,2.0,9.0,-999,0.02,,,0.44,304.000000,,2013-03-21 00:43:00,
2013-03-20 14:53:00,63.0,-99.9,-100.00,SSE,149,2.0,9.0,-999,0.02,,,0.44,304.000000,,2013-03-21 00:53:00,
2013-03-20 15:03:00,63.0,-99.9,-100.00,SSE,149,2.0,9.0,-999,0.02,,,0.44,304.000000,,2013-03-21 01:03:00,
2013-03-20 15:12:00,63.0,-99.9,-100.00,SSE,149,2.0,9.0,-999,0.02,,,0.44,304.000000,,2013-03-21 01:12:00,
2013-03-20 15:22:00,63.0,-99.9,-100.00,SSE,149,2.0,9.0,-999,0.02,,,0.44,304.000000,,2013-03-21 01:22:00,
2013-03-20 15:42:00,64.0,59.0,-100.00,ESE,114,2.0,7.0,84,0.02,,,0.46,421.000000,,2013-03-21 01:42:00,
2013-03-20 15:52:00,64.0,59.0,-100.00,ESE,114,2.0,7.0,84,0.02,,,0.46,421.000000,,2013-03-21 01:52:00,
2013-03-20 16:02:00,64.0,59.0,-100.00,ESE,114,2.0,7.0,84,0.02,,,0.46,421.000000,,2013-03-21 02:02:00,
2013-03-20 16:12:00,64.0,59.0,-100.00,ESE,114,2.0,7.0,84,0.02,,,0.46,421.000000,,2013-03-21 02:12:00,
2013-03-20 16:22:00,64.0,59.0,-100.00,ESE,114,2.0,7.0,84,0.02,,,0.46,421.000000,,2013-03-21 02:22:00,
2013-03-20 17:02:00,66.0,60.0,-100.00,SE,132,2.0,8.0,82,0.00,,,0.46,500.000000,,2013-03-21 03:02:00,
2013-03-20 17:12:00,66.0,60.0,-100.00,SE,132,2.0,8.0,82,0.00,,,0.46,500.000000,,2013-03-21 03:12:00,
2013-03-20 17:21:00,66.0,60.0,-100.00,SE,132,2.0,8.0,82,0.00,,,0.46,500.000000,,2013-03-21 03:21:00,
2013-03-20 17:43:00,67.0,59.0,-100.00,East,83,2.0,8.0,76,0.00,,,0.46,450.000000,,2013-03-21 03:43:00,
2013-03-20 17:53:00,67.0,59.0,-100.00,East,83,2.0,8.0,76,0.00,,,0.46,450.000000,,2013-03-21 03:53:00,
2013-03-20 18:02:00,67.0,59.0,-100.00,East,83,2.0,8.0,76,0.00,,,0.46,450.000000,,2013-03-21 04:02:00,
2013-03-20 18:12:00,67.0,59.0,-100.00,East,83,2.0,8.0,76,0.00,,,0.46,450.000000,,2013-03-21 04:12:00,
2013-03-20 18:22:00,67.0,59.0,-100.00,East,83,2.0,8.0,76,0.00,,,0.46,450.000000,,2013-03-21 04:22:00,
2013-03-20 18:43:00,66.0,60.0,-100.00,NE,48,2.0,9.0,82,0.00,,,0.46,210.000000,,2013-03-21 04:43:00,
2013-03-20 18:53:00,66.0,60.0,-100.00,NE,48,2.0,9.0,82,0.00,,,0.46,210.000000,,2013-03-21 04:53:00,
2013-03-20 19:02:00,66.0,60.0,-100.00,NE,48,2.0,9.0,82,0.00,,,0.46,210.000000,,2013-03-21 05:02:00,
2013-03-20 19:12:00,66.0,60.0,-100.00,NE,48,2.0,9.0,82,0.00,,,0.46,210.000000,,2013-03-21 05:12:00,
2013-03-20 19:21:00,66.0,60.0,-100.00,NE,48,2.0,9.0,82,0.00,,,0.46,210.000000,,2013-03-21 05:21:00,
2013-03-20 19:44:00,61.0,58.0,-100.00,North,353,2.0,8.0,90,0.00,,,0.46,16.000000,,2013-03-21 05:44:00,
2013-03-20 19:52:00,61.0,58.0,-100.00,North,353,2.0,8.0,90,0.00,,,0.46,16.000000,,2013-03-21 05:52:00,
2013-03-20 20:02:00,61.0,58.0,-100.00,North,353,2.0,8.0,90,0.00,,,0.46,16.000000,,2013-03-21 06:02:00,
2013-03-20 20:12:00,61.0,58.0,-100.00,North,353,2.0,8.0,90,0.00,,,0.46,16.000000,,2013-03-21 06:12:00,
2013-03-20 20:21:00,61.0,58.0,-100.00,North,353,2.0,8.0,90,0.00,,,0.46,16.000000,,2013-03-21 06:21:00,
2013-03-20 20:42:00,59.0,55.0,-100.00,North,359,4.0,10.0,88,0.00,,,0.46,0.000000,,2013-03-21 06:42:00,
2013-03-20 20:52:00,59.0,55.0,-100.00,North,359,4.0,10.0,88,0.00,,,0.46,0.000000,,2013-03-21 06:52:00,
2013-03-20 21:02:00,59.0,55.0,-100.00,North,359,4.0,10.0,88,0.00,,,0.46,0.000000,,2013-03-21 07:02:00,
2013-03-20 21:12:00,59.0,55.0,-100.00,North,359,4.0,10.0,88,0.00,,,0.46,0.000000,,2013-03-21 07:12:00,
2013-03-20 21:21:00,59.0,55.0,-100.00,North,359,4.0,10.0,88,0.00,,,0.46,0.000000,,2013-03-21 07:21:00,
2013-03-20 21:42:00,59.0,55.0,-100.00,North,351,3.0,8.0,88,0.00,,,0.46,0.000000,,2013-03-21 07:42:00,
2013-03-20 21:52:00,59.0,55.0,-100.00,North,351,3.0,8.0,88,0.00,,,0.46,0.000000,,2013-03-21 07:52:00,
2013-03-20 22:02:00,59.0,55.0,-100.00,North,351,3.0,8.0,88,0.00,,,0.46,0.000000,,2013-03-21 08:02:00,
2013-03-20 22:12:00,59.0,55.0,-100.00,North,351,3.0,8.0,88,0.00,,,0.46,0.000000,,2013-03-21 08:12:00,
2013-03-20 22:22:00,59.0,55.0,-100.00,North,351,3.0,8.0,88,0.00,,,0.46,0.000000,,2013-03-21 08:22:00,
2013-03-20 22:42:00,59.0,53.0,-100.00,North,356,4.0,10.0,81,0.00,,,0.46,0.000000,,2013-03-21 08:42:00,
2013-03-20 22:52:00,59.0,53.0,-100.00,North,356,4.0,10.0,81,0.00,,,0.46,0.000000,,2013-03-21 08:52:00,
2013-03-20 23:02:00,59.0,53.0,-100.00,North,356,4.0,10.0,81,0.00,,,0.46,0.000000,,2013-03-21 09:02:00,
2013-03-20 23:11:00,59.0,53.0,-100.00,North,356,4.0,10.0,81,0.00,,,0.46,0.000000,,2013-03-21 09:11:00,
2013-03-20 23:21:00,59.0,53.0,-100.00,North,356,4.0,10.0,81,0.00,,,0.46,0.000000,,2013-03-21 09:21:00,
2013-03-20 23:43:00,59.0,53.0,-100.00,North,1,5.0,11.0,80,0.00,,,0.46,0.000000,,2013-03-21 09:43:00,
2013-03-20 23:53:00,59.0,53.0,-100.00,North,1,5.0,11.0,80,0.00,,,0.46,0.000000,,2013-03-21 09:53:00,